Time;durP1;ratioP1;P1;durP2;ratioP2;P2;SDS_P1;SDS_P2;PMS_P1;PMS_P2;Temp;Humidity;BMP_temperature;BMP_pressure;BME280_temperature;BME280_humidity;BME280_pressure;Samples;Min_cycle;Max_cycle;Signal;HPM_P1;HPM_P2
2022/12/31 00:02:15;;;;;;;5.70;1.67;;;;;;;;;;5086785;28;20047;-75
2022/12/31 00:04:47;;;;;;;9.85;1.88;;;;;;;;;;5087006;28;20040;-74
2022/12/31 00:07:18;;;;;;;7.53;1.60;;;;;;;;;;5086757;28;20051;-74
2022/12/31 00:09:49;;;;;;;11.05;1.98;;;;;;;;;;5086913;28;20502;-75
2022/12/31 00:12:19;;;;;;;9.32;2.47;;;;;;;;;;5086790;28;20347;-74
2022/12/31 00:14:49;;;;;;;10.93;3.25;;;;;;;;;;5085754;28;20430;-75
2022/12/31 00:17:20;;;;;;;10.13;3.17;;;;;;;;;;5086784;28;20414;-74
2022/12/31 00:19:50;;;;;;;6.68;2.17;;;;;;;;;;5086031;28;20047;-74
2022/12/31 00:22:20;;;;;;;10.57;2.88;;;;;;;;;;5086855;28;20055;-74
2022/12/31 00:24:50;;;;;;;10.02;2.00;;;;;;;;;;5086445;28;20056;-74
2022/12/31 00:27:21;;;;;;;7.30;2.22;;;;;;;;;;5085038;28;20507;-75
2022/12/31 00:29:51;;;;;;;6.35;1.67;;;;;;;;;;5087175;28;20051;-74
2022/12/31 00:32:22;;;;;;;8.77;1.80;;;;;;;;;;5120564;27;20047;-74
2022/12/31 00:34:52;;;;;;;5.85;1.75;;;;;;;;;;5115408;27;20054;-74
2022/12/31 00:37:22;;;;;;;5.75;1.40;;;;;;;;;;5117410;27;20035;-74
2022/12/31 00:39:53;;;;;;;4.72;1.77;;;;;;;;;;5116526;28;20502;-74
2022/12/31 00:42:24;;;;;;;8.07;1.80;;;;;;;;;;5115772;28;20036;-74
2022/12/31 00:44:54;;;;;;;5.93;1.40;;;;;;;;;;5114823;27;20635;-74
2022/12/31 00:47:25;;;;;;;7.05;1.38;;;;;;;;;;5117406;28;20155;-74
2022/12/31 00:49:55;;;;;;;7.38;1.48;;;;;;;;;;5116955;28;20511;-73
2022/12/31 00:52:26;;;;;;;10.20;1.38;;;;;;;;;;5112867;28;20036;-75
2022/12/31 00:54:57;;;;;;;7.80;1.60;;;;;;;;;;5118274;28;20096;-74
2022/12/31 00:57:27;;;;;;;12.73;1.70;;;;;;;;;;5126464;28;20047;-74
2022/12/31 00:59:57;;;;;;;7.57;1.95;;;;;;;;;;5126741;28;20054;-74
2022/12/31 01:02:27;;;;;;;6.88;1.40;;;;;;;;;;5102799;28;20513;-75
2022/12/31 01:05:05;;;;;;;11.23;1.60;;;;;;;;;;5116729;28;20062;-74
2022/12/31 01:07:37;;;;;;;7.10;1.50;;;;;;;;;;5111695;28;20048;-74
2022/12/31 01:10:08;;;;;;;6.38;1.73;;;;;;;;;;5106700;28;20043;-75
2022/12/31 01:12:38;;;;;;;6.20;1.60;;;;;;;;;;5104634;28;20054;-74
2022/12/31 01:15:08;;;;;;;9.35;2.08;;;;;;;;;;5106535;28;20062;-74
2022/12/31 01:17:39;;;;;;;8.55;1.60;;;;;;;;;;5106310;28;20058;-75
2022/12/31 01:20:09;;;;;;;5.03;1.27;;;;;;;;;;5106561;28;20055;-75
2022/12/31 01:22:40;;;;;;;3.90;1.27;;;;;;;;;;5106085;28;20040;-74
2022/12/31 01:25:10;;;;;;;7.03;1.17;;;;;;;;;;5107132;28;20098;-75
2022/12/31 01:27:40;;;;;;;5.18;1.50;;;;;;;;;;5110206;28;20051;-75
2022/12/31 01:30:11;;;;;;;8.85;1.63;;;;;;;;;;5109377;28;20055;-75
2022/12/31 01:32:42;;;;;;;7.50;1.60;;;;;;;;;;5109741;28;20055;-75
2022/12/31 01:35:12;;;;;;;9.80;2.15;;;;;;;;;;5110135;28;20058;-75
2022/12/31 01:37:43;;;;;;;4.30;1.27;;;;;;;;;;5109939;28;20051;-75
2022/12/31 01:40:14;;;;;;;5.10;1.27;;;;;;;;;;5109242;28;20048;-75
2022/12/31 01:42:44;;;;;;;7.38;1.80;;;;;;;;;;5109333;28;20040;-75
2022/12/31 01:45:15;;;;;;;3.17;1.20;;;;;;;;;;5109287;28;20058;-75
2022/12/31 01:47:50;;;;;;;7.15;1.40;;;;;;;;;;5110325;28;20043;-75
2022/12/31 01:50:28;;;;;;;4.97;1.80;;;;;;;;;;5109063;28;20039;-76
2022/12/31 01:53:06;;;;;;;4.20;1.33;;;;;;;;;;5107984;28;20055;-75
2022/12/31 01:55:39;;;;;;;6.45;1.30;;;;;;;;;;5108924;28;20046;-75
2022/12/31 01:58:31;;;;;;;8.57;1.73;;;;;;;;;;5109824;28;20058;-75
2022/12/31 02:01:03;;;;;;;7.35;1.52;;;;;;;;;;5098246;28;20059;-75
2022/12/31 02:03:33;;;;;;;6.70;1.40;;;;;;;;;;5109537;28;20066;-75
2022/12/31 02:06:06;;;;;;;8.95;1.50;;;;;;;;;;5109519;28;20047;-75
2022/12/31 02:08:38;;;;;;;6.28;1.25;;;;;;;;;;5109164;28;20054;-75
2022/12/31 02:11:20;;;;;;;7.00;1.65;;;;;;;;;;5109844;28;20046;-75
2022/12/31 02:13:54;;;;;;;7.97;1.48;;;;;;;;;;5109286;28;20433;-75
2022/12/31 02:16:33;;;;;;;5.82;1.30;;;;;;;;;;5108970;28;20482;-75
2022/12/31 02:19:06;;;;;;;9.85;1.77;;;;;;;;;;5107459;28;20066;-75
2022/12/31 02:21:45;;;;;;;8.90;1.70;;;;;;;;;;5107017;28;20047;-75
2022/12/31 02:24:15;;;;;;;9.07;1.30;;;;;;;;;;5107755;28;20066;-74
2022/12/31 02:27:05;;;;;;;10.45;1.75;;;;;;;;;;5106879;28;20051;-75
2022/12/31 02:30:11;;;;;;;5.65;1.42;;;;;;;;;;5066835;28;20055;-74
2022/12/31 02:33:00;;;;;;;8.13;1.48;;;;;;;;;;5106993;28;20063;-74
2022/12/31 02:35:41;;;;;;;9.35;1.75;;;;;;;;;;5108900;28;20380;-74
2022/12/31 02:38:20;;;;;;;6.88;1.63;;;;;;;;;;5109504;28;20047;-74
2022/12/31 02:40:53;;;;;;;6.88;1.50;;;;;;;;;;5109455;28;20044;-75
2022/12/31 02:43:25;;;;;;;8.77;1.70;;;;;;;;;;5108698;28;20039;-74
2022/12/31 02:46:19;;;;;;;4.30;1.20;;;;;;;;;;5108587;28;20491;-75
2022/12/31 02:49:03;;;;;;;6.57;1.65;;;;;;;;;;5108896;28;20040;-74
2022/12/31 02:51:51;;;;;;;6.65;1.60;;;;;;;;;;5106854;28;20052;-74
2022/12/31 02:54:40;;;;;;;4.35;1.42;;;;;;;;;;5108905;28;20055;-74
2022/12/31 02:57:26;;;;;;;6.63;1.63;;;;;;;;;;5108820;28;20063;-74
2022/12/31 03:03:01;;;;;;;6.07;1.17;;;;;;;;;;5108605;28;20046;-74
2022/12/31 03:05:43;;;;;;;9.70;1.50;;;;;;;;;;5108900;28;20449;-74
2022/12/31 03:08:21;;;;;;;10.95;1.92;;;;;;;;;;5108790;28;20043;-74
2022/12/31 03:10:52;;;;;;;4.38;1.50;;;;;;;;;;5108274;28;20052;-74
2022/12/31 03:13:23;;;;;;;7.95;1.42;;;;;;;;;;5108789;28;20044;-74
2022/12/31 03:16:01;;;;;;;9.82;1.38;;;;;;;;;;5106787;28;20054;-74
2022/12/31 03:27:05;;;;;;;7.97;1.60;;;;;;;;;;5108048;28;20051;-75
2022/12/31 03:29:34;;;;;;;8.02;1.42;;;;;;;;;;5108334;28;20047;-74
2022/12/31 03:32:05;;;;;;;5.63;1.88;;;;;;;;;;5108267;28;20043;-74
2022/12/31 03:34:35;;;;;;;5.45;1.40;;;;;;;;;;5106341;28;20048;-74
2022/12/31 03:37:05;;;;;;;10.07;1.70;;;;;;;;;;5107999;28;20528;-74
2022/12/31 03:39:36;;;;;;;5.50;1.73;;;;;;;;;;5107705;28;20052;-74
2022/12/31 03:42:06;;;;;;;8.95;1.33;;;;;;;;;;5107782;28;20067;-74
2022/12/31 03:44:36;;;;;;;8.77;1.70;;;;;;;;;;5108046;28;20040;-74
2022/12/31 03:47:07;;;;;;;5.30;1.35;;;;;;;;;;5107579;28;20047;-74
2022/12/31 03:49:38;;;;;;;6.05;1.98;;;;;;;;;;5107657;28;20090;-73
2022/12/31 03:52:08;;;;;;;6.93;2.08;;;;;;;;;;5105817;28;20051;-74
2022/12/31 03:54:38;;;;;;;5.13;1.80;;;;;;;;;;5107352;28;20055;-74
2022/12/31 03:57:08;;;;;;;6.63;1.58;;;;;;;;;;5106775;28;20058;-74
2022/12/31 03:59:41;;;;;;;7.10;1.52;;;;;;;;;;5107447;28;20043;-74
2022/12/31 04:02:11;;;;;;;5.18;1.48;;;;;;;;;;5107422;28;20048;-74
2022/12/31 04:04:42;;;;;;;6.10;1.52;;;;;;;;;;5105972;28;20063;-74
2022/12/31 04:07:13;;;;;;;7.65;1.70;;;;;;;;;;5107584;28;20051;-74
2022/12/31 04:09:43;;;;;;;12.35;2.15;;;;;;;;;;5107305;28;20054;-74
2022/12/31 04:12:14;;;;;;;8.23;1.77;;;;;;;;;;5107581;28;20052;-74
2022/12/31 04:14:43;;;;;;;5.80;1.77;;;;;;;;;;5107122;28;20058;-74
2022/12/31 04:17:14;;;;;;;4.97;1.80;;;;;;;;;;5107010;28;20047;-74
2022/12/31 04:19:44;;;;;;;3.97;1.48;;;;;;;;;;5107053;28;20052;-74
2022/12/31 04:22:16;;;;;;;4.95;1.63;;;;;;;;;;5089509;28;20051;-74
2022/12/31 04:24:46;;;;;;;8.23;1.67;;;;;;;;;;5107080;28;20055;-74
2022/12/31 04:27:17;;;;;;;8.00;1.90;;;;;;;;;;5107186;28;20765;-74
2022/12/31 04:29:50;;;;;;;5.13;1.80;;;;;;;;;;5105312;28;20146;-74
2022/12/31 04:32:20;;;;;;;8.50;1.90;;;;;;;;;;5106475;28;20058;-74
2022/12/31 04:34:51;;;;;;;4.30;1.50;;;;;;;;;;5106568;28;20506;-74
2022/12/31 04:37:20;;;;;;;3.15;1.50;;;;;;;;;;5104911;28;20039;-74
2022/12/31 04:39:51;;;;;;;9.80;2.00;;;;;;;;;;5107010;28;20043;-74
2022/12/31 04:42:21;;;;;;;7.78;1.60;;;;;;;;;;5106534;28;20039;-74
2022/12/31 04:44:51;;;;;;;6.65;1.70;;;;;;;;;;5106905;28;20048;-74
2022/12/31 04:47:21;;;;;;;6.07;1.52;;;;;;;;;;5107511;28;20048;-74
2022/12/31 04:49:51;;;;;;;7.88;2.13;;;;;;;;;;5106627;28;20043;-74
2022/12/31 04:52:22;;;;;;;7.30;1.80;;;;;;;;;;5106561;28;20051;-74
2022/12/31 04:54:53;;;;;;;5.43;1.70;;;;;;;;;;5106432;28;20044;-74
2022/12/31 04:57:23;;;;;;;10.80;1.92;;;;;;;;;;5106869;28;20048;-74
2022/12/31 04:59:54;;;;;;;5.80;1.77;;;;;;;;;;5106999;28;20043;-75
2022/12/31 05:02:24;;;;;;;9.25;2.10;;;;;;;;;;5111176;28;20047;-74
2022/12/31 05:04:55;;;;;;;6.72;1.80;;;;;;;;;;5110607;28;20044;-74
2022/12/31 05:07:25;;;;;;;6.45;1.60;;;;;;;;;;5092999;28;20417;-74
2022/12/31 05:09:56;;;;;;;7.13;2.22;;;;;;;;;;5108893;28;20054;-74
2022/12/31 05:12:26;;;;;;;4.68;1.95;;;;;;;;;;5111249;28;20043;-74
2022/12/31 05:14:57;;;;;;;6.32;2.00;;;;;;;;;;5111164;28;20055;-74
2022/12/31 05:17:27;;;;;;;6.82;1.80;;;;;;;;;;5109048;28;20067;-74
2022/12/31 05:19:57;;;;;;;4.90;1.73;;;;;;;;;;5110868;28;20496;-74
2022/12/31 05:22:28;;;;;;;10.25;2.28;;;;;;;;;;5110876;28;20398;-74
2022/12/31 05:24:59;;;;;;;6.40;1.60;;;;;;;;;;5110493;28;20062;-75
2022/12/31 05:27:38;;;;;;;6.55;1.80;;;;;;;;;;5110297;28;20063;-74
2022/12/31 05:30:08;;;;;;;4.65;1.70;;;;;;;;;;5110392;28;20066;-74
2022/12/31 05:32:39;;;;;;;10.13;2.60;;;;;;;;;;5111180;28;20047;-74
2022/12/31 05:35:10;;;;;;;7.63;2.42;;;;;;;;;;5108346;28;20051;-74
2022/12/31 05:37:40;;;;;;;8.35;2.10;;;;;;;;;;5110104;28;20406;-74
2022/12/31 05:40:11;;;;;;;6.60;2.20;;;;;;;;;;5110428;28;20048;-74
2022/12/31 05:42:42;;;;;;;7.40;1.60;;;;;;;;;;5109916;28;20048;-74
2022/12/31 05:45:12;;;;;;;4.00;1.73;;;;;;;;;;5091303;28;20071;-74
2022/12/31 05:47:44;;;;;;;5.47;2.00;;;;;;;;;;5110201;28;20044;-74
2022/12/31 05:50:16;;;;;;;5.28;1.95;;;;;;;;;;5108880;28;20055;-74
2022/12/31 05:52:55;;;;;;;6.00;1.70;;;;;;;;;;5109735;28;20047;-74
2022/12/31 05:55:27;;;;;;;9.52;2.03;;;;;;;;;;5110028;28;20051;-74
2022/12/31 05:57:57;;;;;;;5.75;1.83;;;;;;;;;;5109391;28;20035;-74
2022/12/31 06:00:28;;;;;;;5.25;1.98;;;;;;;;;;5109622;28;20047;-74
2022/12/31 06:02:59;;;;;;;7.95;2.05;;;;;;;;;;5109501;28;20066;-74
2022/12/31 06:05:29;;;;;;;8.35;2.03;;;;;;;;;;5109527;28;20066;-74
2022/12/31 06:08:00;;;;;;;7.65;2.13;;;;;;;;;;5109438;28;20043;-74
2022/12/31 06:10:30;;;;;;;7.18;1.75;;;;;;;;;;5109120;28;20047;-74
2022/12/31 06:13:00;;;;;;;3.28;1.63;;;;;;;;;;5107282;28;20042;-74
2022/12/31 06:15:31;;;;;;;9.77;2.05;;;;;;;;;;5109149;28;20043;-74
2022/12/31 06:18:02;;;;;;;4.57;1.80;;;;;;;;;;5108823;28;20627;-74
2022/12/31 06:20:36;;;;;;;6.80;1.88;;;;;;;;;;5109048;28;20376;-75
2022/12/31 06:23:06;;;;;;;4.85;1.85;;;;;;;;;;5108386;28;20058;-74
2022/12/31 06:25:36;;;;;;;7.03;2.17;;;;;;;;;;5109686;28;20047;-74
2022/12/31 06:28:07;;;;;;;5.40;1.83;;;;;;;;;;5108857;28;20054;-74
2022/12/31 06:30:48;;;;;;;6.38;2.10;;;;;;;;;;5108805;28;20040;-74
2022/12/31 06:33:18;;;;;;;4.45;2.00;;;;;;;;;;5108452;28;20052;-74
2022/12/31 06:35:48;;;;;;;8.95;2.08;;;;;;;;;;5108493;28;20043;-74
2022/12/31 06:38:18;;;;;;;7.40;2.13;;;;;;;;;;5108919;28;20437;-74
2022/12/31 06:40:48;;;;;;;5.25;1.85;;;;;;;;;;5109218;28;20677;-74
2022/12/31 06:43:19;;;;;;;4.47;2.03;;;;;;;;;;5108230;28;20044;-74
2022/12/31 06:45:50;;;;;;;5.70;2.05;;;;;;;;;;5108686;28;20054;-74
2022/12/31 06:48:21;;;;;;;9.05;2.13;;;;;;;;;;5108747;28;20056;-74
2022/12/31 06:50:51;;;;;;;6.47;1.90;;;;;;;;;;5108976;28;20047;-74
2022/12/31 06:53:21;;;;;;;6.47;2.10;;;;;;;;;;5108724;28;20048;-74
2022/12/31 06:55:52;;;;;;;4.68;1.90;;;;;;;;;;5106578;28;20611;-74
2022/12/31 06:58:23;;;;;;;5.30;2.03;;;;;;;;;;5108621;28;20047;-74
2022/12/31 07:01:02;;;;;;;6.70;2.05;;;;;;;;;;5108925;28;20042;-74
2022/12/31 07:03:50;;;;;;;4.70;1.90;;;;;;;;;;5107509;28;20494;-74
2022/12/31 07:06:45;;;;;;;8.10;2.03;;;;;;;;;;5109058;28;20047;-74
2022/12/31 07:09:54;;;;;;;5.72;2.25;;;;;;;;;;5108532;28;20043;-73
2022/12/31 07:12:46;;;;;;;5.80;2.00;;;;;;;;;;5105544;28;20055;-74
2022/12/31 07:15:30;;;;;;;4.13;1.73;;;;;;;;;;5108035;28;20502;-74
2022/12/31 07:18:18;;;;;;;5.95;2.17;;;;;;;;;;5107744;28;20411;-74
2022/12/31 07:20:50;;;;;;;5.80;2.13;;;;;;;;;;5108054;28;20393;-74
2022/12/31 07:23:20;;;;;;;7.78;2.15;;;;;;;;;;5107551;28;20428;-74
2022/12/31 07:26:03;;;;;;;4.88;2.33;;;;;;;;;;5106634;28;20812;-74
2022/12/31 07:28:50;;;;;;;7.93;1.98;;;;;;;;;;5106983;28;20066;-74
2022/12/31 07:31:29;;;;;;;6.38;2.22;;;;;;;;;;5108501;28;20059;-74
2022/12/31 07:34:10;;;;;;;5.43;1.88;;;;;;;;;;5107999;28;20028;-74
2022/12/31 07:36:49;;;;;;;7.70;2.05;;;;;;;;;;5108233;28;20051;-74
2022/12/31 07:39:33;;;;;;;7.50;1.90;;;;;;;;;;5107212;28;20044;-73
2022/12/31 07:42:29;;;;;;;6.03;2.60;;;;;;;;;;5107319;28;20054;-74
2022/12/31 07:45:14;;;;;;;4.95;1.88;;;;;;;;;;5107746;28;20054;-74
2022/12/31 07:47:46;;;;;;;7.32;1.90;;;;;;;;;;5107564;28;20406;-74
2022/12/31 07:50:19;;;;;;;7.80;2.22;;;;;;;;;;5107286;28;20513;-74
2022/12/31 07:52:50;;;;;;;6.13;2.33;;;;;;;;;;5107275;28;20043;-74
2022/12/31 07:55:20;;;;;;;5.82;2.00;;;;;;;;;;5107599;28;20076;-76
2022/12/31 07:57:58;;;;;;;5.60;2.63;;;;;;;;;;5107614;28;20039;-74
2022/12/31 08:00:31;;;;;;;10.18;2.50;;;;;;;;;;5107334;28;20066;-74
2022/12/31 08:03:28;;;;;;;7.80;2.70;;;;;;;;;;5105656;28;20628;-74
2022/12/31 08:06:25;;;;;;;10.98;2.55;;;;;;;;;;5107430;28;20044;-74
2022/12/31 08:09:19;;;;;;;13.68;2.50;;;;;;;;;;5107222;28;20430;-74
2022/12/31 08:11:57;;;;;;;4.57;1.92;;;;;;;;;;5106586;28;20059;-74
2022/12/31 08:14:29;;;;;;;9.50;2.10;;;;;;;;;;5107436;28;20044;-74
2022/12/31 08:16:59;;;;;;;5.53;2.13;;;;;;;;;;5107190;28;20062;-74
2022/12/31 08:19:32;;;;;;;9.48;2.00;;;;;;;;;;5106893;28;20051;-74
2022/12/31 08:22:22;;;;;;;6.55;2.30;;;;;;;;;;5107178;28;20394;-74
2022/12/31 08:25:13;;;;;;;6.70;2.53;;;;;;;;;;5107589;28;20386;-73
2022/12/31 08:28:04;;;;;;;6.55;2.17;;;;;;;;;;5106994;28;20055;-74
2022/12/31 08:30:53;;;;;;;6.38;2.00;;;;;;;;;;5107047;28;20044;-74
2022/12/31 08:33:28;;;;;;;6.53;2.13;;;;;;;;;;5106617;28;20058;-74
2022/12/31 08:36:24;;;;;;;9.65;2.28;;;;;;;;;;5106157;28;20044;-74
2022/12/31 08:38:58;;;;;;;12.23;2.22;;;;;;;;;;5106744;28;20525;-75
2022/12/31 08:41:37;;;;;;;6.05;2.42;;;;;;;;;;5106438;28;20048;-75
2022/12/31 08:44:32;;;;;;;7.03;2.42;;;;;;;;;;5107003;28;20062;-75
2022/12/31 08:47:02;;;;;;;8.07;2.47;;;;;;;;;;5107085;28;20043;-75
2022/12/31 08:49:34;;;;;;;10.27;2.33;;;;;;;;;;5106379;28;20043;-75
2022/12/31 08:52:14;;;;;;;7.70;2.25;;;;;;;;;;5107073;28;20087;-75
2022/12/31 08:54:45;;;;;;;8.25;2.10;;;;;;;;;;5107447;28;20050;-75
2022/12/31 08:57:26;;;;;;;10.75;2.50;;;;;;;;;;5106084;28;20518;-75
2022/12/31 09:00:11;;;;;;;7.22;2.30;;;;;;;;;;5106927;28;20043;-75
2022/12/31 09:03:21;;;;;;;7.35;2.38;;;;;;;;;;5107316;28;20051;-75
2022/12/31 09:06:06;;;;;;;7.63;2.53;;;;;;;;;;5106507;28;20048;-75
2022/12/31 09:08:46;;;;;;;11.35;2.63;;;;;;;;;;5104822;28;20056;-75
2022/12/31 09:11:25;;;;;;;8.93;2.30;;;;;;;;;;5106633;28;20055;-75
2022/12/31 09:14:00;;;;;;;6.45;2.45;;;;;;;;;;5106088;28;20043;-75
2022/12/31 09:16:49;;;;;;;6.78;2.13;;;;;;;;;;5105562;28;20055;-75
2022/12/31 09:19:19;;;;;;;15.05;4.03;;;;;;;;;;5105915;28;20039;-75
2022/12/31 09:21:49;;;;;;;6.57;3.63;;;;;;;;;;5106627;28;20052;-75
2022/12/31 09:24:21;;;;;;;8.43;3.22;;;;;;;;;;5105190;28;20064;-75
2022/12/31 09:27:05;;;;;;;6.55;3.03;;;;;;;;;;5106416;28;20047;-75
2022/12/31 09:29:47;;;;;;;6.18;3.00;;;;;;;;;;5106725;28;20508;-75
2022/12/31 09:32:25;;;;;;;9.25;2.72;;;;;;;;;;5106442;28;20506;-75
2022/12/31 09:35:06;;;;;;;7.90;2.55;;;;;;;;;;5106533;28;20406;-75
2022/12/31 09:37:55;;;;;;;8.93;2.75;;;;;;;;;;5106085;28;20043;-75
2022/12/31 09:40:45;;;;;;;5.07;2.45;;;;;;;;;;5106126;28;20054;-75
2022/12/31 09:43:19;;;;;;;8.45;2.05;;;;;;;;;;5106768;28;20047;-75
2022/12/31 09:46:13;;;;;;;7.78;2.10;;;;;;;;;;5107048;28;20039;-75
2022/12/31 09:49:12;;;;;;;8.60;1.98;;;;;;;;;;5108741;28;20044;-77
2022/12/31 09:51:57;;;;;;;5.43;1.80;;;;;;;;;;5110073;28;20043;-77
2022/12/31 09:54:39;;;;;;;5.40;2.03;;;;;;;;;;5110409;28;20398;-75
2022/12/31 09:57:09;;;;;;;;;;;;;;;;;;5110096;28;20047;-76
2022/12/31 09:59:47;;;;;;;7.07;2.42;;;;;;;;;;5109831;28;19920;-77
2022/12/31 10:02:45;;;;;;;11.20;2.38;;;;;;;;;;5109881;28;20051;-77
2022/12/31 10:05:22;;;;;;;4.93;1.88;;;;;;;;;;5109065;28;20514;-75
2022/12/31 10:08:15;;;;;;;7.38;2.55;;;;;;;;;;5109219;28;20052;-75
2022/12/31 10:10:51;;;;;;;7.30;2.35;;;;;;;;;;5109551;28;20055;-75
2022/12/31 10:13:52;;;;;;;9.82;2.10;;;;;;;;;;5109453;28;20502;-75
2022/12/31 10:16:57;;;;;;;7.47;2.28;;;;;;;;;;5109388;28;20052;-75
2022/12/31 10:20:17;;;;;;;11.00;3.10;;;;;;;;;;5107134;28;20055;-75
2022/12/31 10:22:54;;;;;;;5.50;1.92;;;;;;;;;;5046437;28;20064;-75
2022/12/31 10:26:03;;;;;;;5.28;1.90;;;;;;;;;;5045873;28;20065;-75
2022/12/31 10:28:46;;;;;;;6.05;1.73;;;;;;;;;;5089913;28;20047;-84
2022/12/31 10:31:47;;;;;;;9.55;2.20;;;;;;;;;;5108620;28;20044;-75
2022/12/31 10:34:47;;;;;;;9.55;2.03;;;;;;;;;;5109212;28;20044;-75
2022/12/31 10:37:21;;;;;;;3.60;1.92;;;;;;;;;;5106643;28;20062;-75
2022/12/31 10:40:10;;;;;;;13.63;2.22;;;;;;;;;;5108007;28;20058;-76
2022/12/31 10:42:59;;;;;;;4.07;1.88;;;;;;;;;;5108399;28;20051;-75
2022/12/31 10:45:39;;;;;;;16.58;1.77;;;;;;;;;;5109402;28;20495;-76
2022/12/31 10:48:21;;;;;;;9.80;1.88;;;;;;;;;;5107082;28;20052;-75
2022/12/31 10:51:29;;;;;;;11.65;1.65;;;;;;;;;;5108744;28;20036;-75
2022/12/31 10:54:24;;;;;;;8.63;2.05;;;;;;;;;;5109227;28;20044;-75
2022/12/31 10:57:22;;;;;;;14.40;1.60;;;;;;;;;;5108439;28;20055;-75
2022/12/31 11:00:17;;;;;;;15.25;1.90;;;;;;;;;;5108071;28;20054;-76
2022/12/31 11:03:28;;;;;;;11.18;1.65;;;;;;;;;;5108709;28;20509;-75
2022/12/31 11:06:14;;;;;;;17.05;1.70;;;;;;;;;;5108969;28;20051;-75
2022/12/31 11:09:22;;;;;;;11.50;1.77;;;;;;;;;;5108160;28;20044;-76
2022/12/31 11:12:42;;;;;;;8.27;1.63;;;;;;;;;;5107790;28;20047;-75
2022/12/31 11:15:30;;;;;;;10.38;1.88;;;;;;;;;;5106074;28;20058;-78
2022/12/31 11:18:15;;;;;;;11.25;1.58;;;;;;;;;;5107852;28;20490;-75
2022/12/31 11:20:48;;;;;;;9.18;1.30;;;;;;;;;;5108592;28;20043;-76
2022/12/31 11:23:45;;;;;;;4.25;1.33;;;;;;;;;;5108192;28;20054;-76
2022/12/31 11:26:43;;;;;;;10.57;1.80;;;;;;;;;;5108722;28;20052;-76
2022/12/31 11:29:54;;;;;;;6.25;1.52;;;;;;;;;;5108159;28;20054;-76
2022/12/31 11:33:04;;;;;;;5.88;1.60;;;;;;;;;;5107091;28;20044;-76
2022/12/31 11:35:49;;;;;;;7.53;1.50;;;;;;;;;;5090177;28;20406;-76
2022/12/31 11:38:34;;;;;;;7.00;1.42;;;;;;;;;;5108138;28;20078;-76
2022/12/31 11:41:18;;;;;;;12.90;1.60;;;;;;;;;;5106268;28;20054;-76
2022/12/31 11:43:59;;;;;;;7.93;1.25;;;;;;;;;;5107763;28;20040;-77
2022/12/31 11:46:48;;;;;;;31.48;2.17;;;;;;;;;;5108070;28;20050;-76
2022/12/31 11:49:35;;;;;;;2.53;1.25;;;;;;;;;;5107326;28;20051;-76
2022/12/31 11:52:17;;;;;;;6.30;1.33;;;;;;;;;;5107249;28;20035;-77
2022/12/31 11:54:50;;;;;;;7.82;1.42;;;;;;;;;;5108193;28;20516;-77
2022/12/31 11:57:26;;;;;;;9.95;1.40;;;;;;;;;;5107785;28;20044;-76
2022/12/31 12:00:15;;;;;;;5.97;1.20;;;;;;;;;;5107164;28;20066;-77
2022/12/31 12:02:54;;;;;;;3.97;1.60;;;;;;;;;;5107863;28;20047;-77
2022/12/31 12:05:26;;;;;;;7.90;1.73;;;;;;;;;;5106944;28;20051;-74
2022/12/31 12:07:58;;;;;;;4.10;1.27;;;;;;;;;;5107297;28;20054;-75
2022/12/31 12:10:35;;;;;;;4.97;1.52;;;;;;;;;;5105784;28;20044;-76
2022/12/31 12:13:19;;;;;;;3.88;1.33;;;;;;;;;;5107623;28;20048;-77
2022/12/31 12:15:52;;;;;;;11.35;1.33;;;;;;;;;;5106926;28;20039;-75
2022/12/31 12:18:28;;;;;;;6.53;1.40;;;;;;;;;;5107288;28;20043;-75
2022/12/31 12:21:32;;;;;;;4.32;1.48;;;;;;;;;;5106843;28;20043;-75
2022/12/31 12:24:04;;;;;;;6.07;1.48;;;;;;;;;;5084952;28;20055;-75
2022/12/31 12:26:42;;;;;;;4.40;1.42;;;;;;;;;;5107267;28;20051;-76
2022/12/31 12:29:21;;;;;;;3.42;1.30;;;;;;;;;;5106487;28;20051;-76
2022/12/31 12:35:28;;;;;;;3.33;1.17;;;;;;;;;;5107279;28;20047;-76
2022/12/31 12:38:05;;;;;;;3.85;1.23;;;;;;;;;;5107502;28;20051;-76
2022/12/31 12:40:35;;;;;;;4.72;1.25;;;;;;;;;;5107126;28;20043;-77
2022/12/31 12:43:22;;;;;;;7.00;1.20;;;;;;;;;;5105969;28;20062;-76
2022/12/31 12:45:55;;;;;;;4.03;1.25;;;;;;;;;;5107188;28;20047;-76
2022/12/31 12:48:37;;;;;;;5.68;1.25;;;;;;;;;;5106981;28;20062;-79
2022/12/31 12:51:14;;;;;;;6.80;1.60;;;;;;;;;;5107535;28;20493;-76
2022/12/31 12:54:21;;;;;;;4.25;1.08;;;;;;;;;;5107227;28;20054;-75
2022/12/31 12:57:01;;;;;;;4.28;1.35;;;;;;;;;;5088817;28;20141;-76
2022/12/31 12:59:51;;;;;;;6.40;2.20;;;;;;;;;;5106655;28;20398;-74
2022/12/31 13:02:49;;;;;;;5.45;1.50;;;;;;;;;;5106158;28;20051;-77
2022/12/31 13:05:47;;;;;;;3.55;1.50;;;;;;;;;;5106768;28;20051;-73
2022/12/31 13:08:56;;;;;;;3.88;1.40;;;;;;;;;;5105915;28;20055;-78
2022/12/31 13:11:39;;;;;;;3.10;1.35;;;;;;;;;;5105323;28;20064;-74
2022/12/31 13:14:30;;;;;;;5.28;1.80;;;;;;;;;;5107318;28;20054;-75
2022/12/31 13:17:19;;;;;;;5.82;1.58;;;;;;;;;;5124655;28;20032;-74
2022/12/31 13:20:10;;;;;;;3.70;1.80;;;;;;;;;;5118830;28;20047;-74
2022/12/31 13:22:43;;;;;;;1.90;1.40;;;;;;;;;;5092242;28;20047;-74
2022/12/31 13:25:35;;;;;;;5.32;1.33;;;;;;;;;;5110552;28;20375;-76
2022/12/31 13:28:17;;;;;;;3.05;1.23;;;;;;;;;;5110735;28;20044;-77
2022/12/31 13:30:52;;;;;;;6.30;1.40;;;;;;;;;;5109741;28;20032;-78
2022/12/31 13:33:58;;;;;;;4.22;1.50;;;;;;;;;;5109666;28;20047;-76
2022/12/31 13:36:31;;;;;;;3.75;1.20;;;;;;;;;;5110332;28;20052;-78
2022/12/31 13:39:05;;;;;;;3.05;1.48;;;;;;;;;;5110205;28;20044;-76
2022/12/31 13:41:51;;;;;;;3.47;1.33;;;;;;;;;;5110917;28;20058;-76
2022/12/31 13:44:25;;;;;;;2.42;1.27;;;;;;;;;;5110069;28;20048;-76
2022/12/31 13:47:33;;;;;;;4.05;1.63;;;;;;;;;;5110678;28;20055;-76
2022/12/31 13:50:15;;;;;;;6.20;1.63;;;;;;;;;;5066849;28;20542;-75
2022/12/31 13:52:59;;;;;;;5.35;1.60;;;;;;;;;;5049196;28;20052;-74
2022/12/31 13:55:50;;;;;;;4.35;1.50;;;;;;;;;;5097678;28;20078;-74
2022/12/31 13:58:41;;;;;;;4.13;1.45;;;;;;;;;;5108320;27;20058;-74
2022/12/31 14:01:58;;;;;;;3.72;1.20;;;;;;;;;;5109640;28;20502;-75
2022/12/31 14:04:49;;;;;;;4.60;1.23;;;;;;;;;;5087832;28;20055;-81
2022/12/31 14:07:52;;;;;;;5.85;1.52;;;;;;;;;;5108762;28;20351;-73
2022/12/31 14:10:48;;;;;;;7.28;1.70;;;;;;;;;;5109179;28;20040;-75
2022/12/31 14:13:40;;;;;;;3.47;1.27;;;;;;;;;;5109142;28;20565;-78
2022/12/31 14:16:47;;;;;;;3.55;1.42;;;;;;;;;;5108449;28;20039;-76
2022/12/31 14:19:40;;;;;;;3.25;1.40;;;;;;;;;;5108039;28;20054;-75
2022/12/31 14:22:38;;;;;;;3.45;1.42;;;;;;;;;;5109601;28;20050;-76
2022/12/31 14:25:28;;;;;;;4.25;1.52;;;;;;;;;;5108783;28;20044;-77
2022/12/31 14:28:01;;;;;;;4.20;1.50;;;;;;;;;;5108814;28;20055;-75
2022/12/31 14:30:38;;;;;;;6.50;1.42;;;;;;;;;;5109176;28;20042;-76
2022/12/31 14:33:17;;;;;;;2.65;1.38;;;;;;;;;;5107042;27;20044;-75
2022/12/31 14:36:08;;;;;;;3.50;1.55;;;;;;;;;;5108504;28;20064;-74
2022/12/31 14:38:46;;;;;;;2.75;1.30;;;;;;;;;;5109356;28;20051;-75
2022/12/31 14:41:41;;;;;;;5.28;1.50;;;;;;;;;;5107926;27;20446;-75
2022/12/31 14:44:33;;;;;;;4.38;1.50;;;;;;;;;;5109200;28;20502;-74
2022/12/31 14:47:21;;;;;;;3.88;1.40;;;;;;;;;;5109277;28;20043;-80
2022/12/31 14:50:03;;;;;;;3.58;1.42;;;;;;;;;;5108963;28;20051;-75
2022/12/31 14:52:59;;;;;;;3.63;1.38;;;;;;;;;;5108872;28;20044;-78
2022/12/31 14:55:32;;;;;;;4.32;1.75;;;;;;;;;;5109188;28;20043;-75
2022/12/31 14:58:53;;;;;;;4.03;1.50;;;;;;;;;;5108785;28;20039;-76
2022/12/31 15:01:25;;;;;;;4.15;1.42;;;;;;;;;;5065378;28;20060;-76
2022/12/31 15:03:58;;;;;;;5.15;1.30;;;;;;;;;;5065563;28;20447;-75
2022/12/31 15:06:49;;;;;;;6.93;1.73;;;;;;;;;;5093562;28;20055;-75
2022/12/31 15:10:07;;;;;;;5.18;1.50;;;;;;;;;;5107079;28;20055;-77
2022/12/31 15:13:20;;;;;;;4.38;1.52;;;;;;;;;;5076057;28;20058;-75
2022/12/31 15:16:00;;;;;;;3.17;1.30;;;;;;;;;;5108011;28;20048;-76
2022/12/31 15:18:42;;;;;;;3.33;1.50;;;;;;;;;;5108627;28;20044;-75
2022/12/31 15:21:50;;;;;;;4.93;1.63;;;;;;;;;;5108009;28;20490;-75
2022/12/31 15:24:26;;;;;;;5.03;1.55;;;;;;;;;;5107831;28;20813;-75
2022/12/31 15:27:04;;;;;;;5.13;1.30;;;;;;;;;;5107927;28;20403;-75
2022/12/31 15:29:44;;;;;;;3.58;1.25;;;;;;;;;;5106962;27;20048;-76
2022/12/31 15:32:24;;;;;;;4.22;1.33;;;;;;;;;;5108379;28;20052;-76
2022/12/31 15:35:20;;;;;;;5.72;1.40;;;;;;;;;;5106759;28;20058;-75
2022/12/31 15:38:02;;;;;;;3.47;1.50;;;;;;;;;;5102883;28;20090;-75
2022/12/31 15:40:42;;;;;;;4.45;1.33;;;;;;;;;;5107654;28;20044;-76
2022/12/31 15:43:25;;;;;;;3.53;1.38;;;;;;;;;;5108202;28;20490;-75
2022/12/31 15:45:57;;;;;;;3.50;1.40;;;;;;;;;;5108454;28;20048;-76
2022/12/31 15:48:42;;;;;;;6.95;1.55;;;;;;;;;;5107387;28;20426;-75
2022/12/31 15:51:27;;;;;;;2.80;1.13;;;;;;;;;;5107464;28;20048;-75
2022/12/31 15:53:59;;;;;;;10.45;1.90;;;;;;;;;;5107703;28;20044;-75
2022/12/31 15:56:40;;;;;;;6.00;1.40;;;;;;;;;;5106861;28;20054;-75
2022/12/31 15:59:15;;;;;;;4.25;1.63;;;;;;;;;;5107577;28;20051;-75
2022/12/31 16:01:46;;;;;;;4.53;1.20;;;;;;;;;;5107529;28;20051;-75
2022/12/31 16:04:20;;;;;;;7.50;1.30;;;;;;;;;;5107281;28;20529;-74
2022/12/31 16:06:51;;;;;;;3.75;1.20;;;;;;;;;;5107104;28;20059;-74
2022/12/31 16:09:26;;;;;;;5.03;1.05;;;;;;;;;;5106971;28;20040;-75
2022/12/31 16:11:59;;;;;;;2.67;1.00;;;;;;;;;;5107137;28;20063;-75